Time;durP1;ratioP1;P1;durP2;ratioP2;P2;SDS_P1;SDS_P2;PMS_P1;PMS_P2;Temp;Humidity;BMP_temperature;BMP_pressure;BME280_temperature;BME280_humidity;BME280_pressure;Samples;Min_cycle;Max_cycle;Signal;HPM_P1;HPM_P2
2023/08/24 00:00:16;;;;;;;;;;;;;;;20.97;nan;100508.84;4968670;28;19922;-84
2023/08/24 00:02:45;;;;;;;;;;;;;;;20.91;nan;100515.09;4978189;28;20388;-83
2023/08/24 00:05:10;;;;;;;;;;;;;;;20.89;nan;100506.44;4976671;28;20289;-84
2023/08/24 00:07:36;;;;;;;;;;;;;;;20.84;nan;100511.66;4963247;28;19914;-83
2023/08/24 00:10:01;;;;;;;;;;;;;;;20.79;nan;100500.75;4965611;28;20203;-84
2023/08/24 00:12:27;;;;;;;;;;;;;;;20.74;nan;100505.97;4972272;28;19910;-84
2023/08/24 00:14:52;;;;;;;;;;;;;;;20.74;nan;100497.91;4980469;28;19918;-84
2023/08/24 00:17:18;;;;;;;;;;;;;;;20.82;nan;100510.22;4963641;29;19919;-84
2023/08/24 00:19:46;;;;;;;;;;;;;;;20.86;nan;100482.69;4963654;28;19923;-84
2023/08/24 00:22:11;;;;;;;;;;;;;;;20.84;nan;100492.03;4991440;28;19946;-86
2023/08/24 00:24:37;;;;;;;;;;;;;;;20.82;nan;100488.72;4981441;28;19918;-84
2023/08/24 00:27:02;;;;;;;;;;;;;;;20.78;nan;100488.34;4983979;28;19949;-84
2023/08/24 00:29:28;;;;;;;;;;;;;;;20.74;nan;100487.16;4982170;28;19969;-84
2023/08/24 00:31:57;;;;;;;;;;;;;;;20.72;nan;100484.66;4968773;28;19982;-84
2023/08/24 00:34:22;;;;;;;;;;;;;;;20.72;nan;100479.28;4961919;28;20278;-85
2023/08/24 00:36:50;;;;;;;;;;;;;;;20.73;nan;100475.56;4977284;28;20248;-84
2023/08/24 00:39:16;;;;;;;;;;;;;;;20.79;nan;100472.00;4974734;28;19922;-84
2023/08/24 00:41:42;;;;;;;;;;;;;;;20.84;nan;100470.53;4981657;28;19953;-85
2023/08/24 00:44:07;;;;;;;;;;;;;;;20.81;nan;100482.53;4979867;28;19914;-85
2023/08/24 00:46:33;;;;;;;;;;;;;;;20.83;nan;100484.97;4983703;28;19914;-85
2023/08/24 00:48:58;;;;;;;;;;;;;;;20.82;nan;100488.72;4975867;28;19962;-85
2023/08/24 00:51:24;;;;;;;;;;;;;;;20.78;nan;100504.44;4977939;28;19961;-84
2023/08/24 00:53:49;;;;;;;;;;;;;;;20.81;nan;100493.28;4982566;28;19921;-83
2023/08/24 00:56:15;;;;;;;;;;;;;;;20.84;nan;100511.66;4972296;28;19925;-85
2023/08/24 00:58:41;;;;;;;;;;;;;;;20.87;nan;100530.03;4981251;28;19944;-85
2023/08/24 01:01:07;;;;;;;;;;;;;;;20.88;nan;100536.22;4980613;28;19914;-84
2023/08/24 01:03:33;;;;;;;;;;;;;;;20.88;nan;100534.38;4972213;28;19922;-84
2023/08/24 01:05:58;;;;;;;;;;;;;;;20.91;nan;100522.34;4997759;28;19914;-84
2023/08/24 01:08:24;;;;;;;;;;;;;;;20.97;nan;100525.00;4983141;28;19918;-84
2023/08/24 01:11:09;;;;;;;;;;;;;;;21.02;nan;100520.78;4999062;28;20335;-85
2023/08/24 01:13:41;;;;;;;;;;;;;;;21.14;nan;100525.25;4980857;28;19925;-84
2023/08/24 01:16:16;;;;;;;;;;;;;;;21.16;nan;100533.06;4981893;28;20292;-85
2023/08/24 01:18:42;;;;;;;;;;;;;;;21.10;nan;100528.59;4983460;28;19926;-85
2023/08/24 01:21:08;;;;;;;;;;;;;;;21.03;nan;100495.56;4982722;28;19936;-84
2023/08/24 01:23:43;;;;;;;;;;;;;;;20.98;nan;100526.63;4975030;28;19961;-85
2023/08/24 01:26:10;;;;;;;;;;;;;;;20.89;nan;100533.31;4997631;28;20269;-83
2023/08/24 01:28:36;;;;;;;;;;;;;;;20.81;nan;100504.03;4982797;28;19938;-84
2023/08/24 01:31:03;;;;;;;;;;;;;;;20.79;nan;100527.63;4982119;28;19918;-87
2023/08/24 01:33:29;;;;;;;;;;;;;;;20.70;nan;100512.81;4991857;28;19914;-84
2023/08/24 01:35:54;;;;;;;;;;;;;;;20.62;nan;100531.88;4982496;28;19992;-84
2023/08/24 01:38:19;;;;;;;;;;;;;;;20.53;nan;100518.69;4998099;28;19957;-84
2023/08/24 01:40:59;;;;;;;;;;;;;;;20.45;nan;100513.59;4983950;28;19937;-84
2023/08/24 01:43:27;;;;;;;;;;;;;;;20.35;nan;100511.38;4967458;29;19919;-84
2023/08/24 01:45:53;;;;;;;;;;;;;;;20.32;nan;100509.09;4989167;28;19956;-84
2023/08/24 01:48:19;;;;;;;;;;;;;;;20.30;nan;100511.19;4988123;28;19918;-84
2023/08/24 01:50:45;;;;;;;;;;;;;;;20.28;nan;100504.38;4986306;28;19914;-84
2023/08/24 01:53:10;;;;;;;;;;;;;;;;;;4983080;28;19925;-84
2023/08/24 01:55:36;;;;;;;;;;;;;;;20.23;nan;100501.53;4983742;28;19941;-84
2023/08/24 01:58:01;;;;;;;;;;;;;;;20.15;nan;100506.09;4997940;28;19970;-85
2023/08/24 02:00:28;;;;;;;;;;;;;;;20.09;nan;100507.00;4980002;28;19914;-85
2023/08/24 02:02:55;;;;;;;;;;;;;;;20.08;nan;100493.75;4995476;28;20379;-85
2023/08/24 02:05:21;;;;;;;;;;;;;;;20.02;nan;100490.09;4964172;29;19930;-86
2023/08/24 02:07:47;;;;;;;;;;;;;;;19.95;nan;100489.31;4980229;28;19914;-85
2023/08/24 02:10:12;;;;;;;;;;;;;;;19.89;nan;100482.91;4961122;28;19915;-86
2023/08/24 02:12:38;;;;;;;;;;;;;;;19.83;nan;100491.00;4977248;28;19977;-85
2023/08/24 02:15:04;;;;;;;;;;;;;;;19.75;nan;100483.19;4987289;28;19918;-84
2023/08/24 02:17:29;;;;;;;;;;;;;;;19.72;nan;100479.91;4963141;28;20260;-84
2023/08/24 02:19:55;;;;;;;;;;;;;;;19.72;nan;100468.34;4964101;28;19921;-86
2023/08/24 02:22:21;;;;;;;;;;;;;;;19.76;nan;100474.09;4975629;28;19956;-84
2023/08/24 02:24:46;;;;;;;;;;;;;;;19.79;nan;100469.16;4974065;28;19914;-86
2023/08/24 02:27:12;;;;;;;;;;;;;;;19.80;nan;100456.53;4964285;28;19918;-86
2023/08/24 02:29:38;;;;;;;;;;;;;;;19.86;nan;100458.38;4963755;28;19914;-85
2023/08/24 02:32:04;;;;;;;;;;;;;;;19.86;nan;100459.19;4964308;28;19929;-84
2023/08/24 02:34:30;;;;;;;;;;;;;;;19.84;nan;100466.63;4964984;28;19914;-86
2023/08/24 02:36:56;;;;;;;;;;;;;;;19.80;nan;100457.38;4962822;28;20391;-85
2023/08/24 02:39:21;;;;;;;;;;;;;;;19.80;nan;100456.53;4955145;29;19930;-86
2023/08/24 02:41:47;;;;;;;;;;;;;;;19.77;nan;100444.38;4971530;28;19914;-86
2023/08/24 02:44:12;;;;;;;;;;;;;;;19.79;nan;100446.88;4987190;28;19918;-84
2023/08/24 02:46:38;;;;;;;;;;;;;;;19.77;nan;100455.13;4965042;28;20376;-85
2023/08/24 02:49:03;;;;;;;;;;;;;;;19.83;nan;100453.41;4964248;28;19962;-85
2023/08/24 02:51:31;;;;;;;;;;;;;;;19.82;nan;100451.78;4969937;28;19913;-86
2023/08/24 02:53:56;;;;;;;;;;;;;;;19.82;nan;100459.84;4982225;28;19938;-87
2023/08/24 02:56:22;;;;;;;;;;;;;;;19.79;nan;100436.13;4966324;28;20649;-86
2023/08/24 02:58:47;;;;;;;;;;;;;;;19.71;nan;100451.44;4964336;28;19918;-85
2023/08/24 03:01:13;;;;;;;;;;;;;;;19.68;nan;100446.47;4960443;28;20252;-86
2023/08/24 03:03:38;;;;;;;;;;;;;;;19.64;nan;100455.13;4969616;28;19915;-88
2023/08/24 03:06:05;;;;;;;;;;;;;;;19.62;nan;100466.09;4970755;29;19938;-85
2023/08/24 03:08:31;;;;;;;;;;;;;;;19.60;nan;100459.31;4968095;29;19950;-86
2023/08/24 03:11:00;;;;;;;;;;;;;;;19.59;nan;100468.38;4970569;29;19925;-85
2023/08/24 03:13:25;;;;;;;;;;;;;;;19.60;nan;100459.31;5002978;28;19922;-85
2023/08/24 03:15:52;;;;;;;;;;;;;;;19.61;nan;100456.38;4987575;28;19914;-86
2023/08/24 03:18:17;;;;;;;;;;;;;;;19.64;nan;100465.88;4987502;28;19933;-85
2023/08/24 03:20:44;;;;;;;;;;;;;;;19.65;nan;100460.28;4986472;28;19914;-87
2023/08/24 03:23:09;;;;;;;;;;;;;;;;;;4984045;28;19953;-85
2023/08/24 03:25:38;;;;;;;;;;;;;;;19.69;nan;100450.00;4967645;28;19962;-85
2023/08/24 03:28:04;;;;;;;;;;;;;;;19.69;nan;100442.78;4964769;28;19915;-85
2023/08/24 03:30:36;;;;;;;;;;;;;;;19.75;nan;100445.63;4967385;28;19920;-85
2023/08/24 03:33:05;;;;;;;;;;;;;;;19.81;nan;100423.31;4984782;28;20125;-85
2023/08/24 03:35:33;;;;;;;;;;;;;;;19.90;nan;100420.16;4988149;28;20028;-85
2023/08/24 03:37:59;;;;;;;;;;;;;;;20.09;nan;100378.13;5005178;28;19932;-85
2023/08/24 03:40:24;;;;;;;;;;;;;;;20.21;nan;100353.25;5001052;28;19914;-86
2023/08/24 03:42:50;;;;;;;;;;;;;;;20.29;nan;100331.50;5002209;28;19924;-84
2023/08/24 03:45:18;;;;;;;;;;;;;;;20.35;nan;100334.13;4981314;28;19978;-85
2023/08/24 03:47:46;;;;;;;;;;;;;;;20.35;nan;100306.44;4967657;28;19922;-87
2023/08/24 03:50:11;;;;;;;;;;;;;;;20.24;nan;100286.50;4966310;28;19914;-86
2023/08/24 03:52:38;;;;;;;;;;;;;;;20.03;nan;100295.78;4966117;28;19921;-87
2023/08/24 03:55:04;;;;;;;;;;;;;;;20.03;nan;100314.56;4968412;28;19914;-85
2023/08/24 03:57:33;;;;;;;;;;;;;;;20.08;nan;100305.88;4968312;28;19946;-85
2023/08/24 03:59:58;;;;;;;;;;;;;;;20.13;nan;100324.81;4968421;28;19914;-85
2023/08/24 04:02:24;;;;;;;;;;;;;;;20.12;nan;100324.00;4974696;28;19918;-85
2023/08/24 04:04:53;;;;;;;;;;;;;;;20.11;nan;100338.44;4967781;28;19949;-85
2023/08/24 04:07:18;;;;;;;;;;;;;;;20.07;nan;100342.63;4967857;28;19934;-85
2023/08/24 04:09:45;;;;;;;;;;;;;;;20.11;nan;100332.25;4969739;28;19925;-85
2023/08/24 04:12:11;;;;;;;;;;;;;;;20.13;nan;100336.38;4974651;28;19953;-86
2023/08/24 04:14:36;;;;;;;;;;;;;;;20.21;nan;100359.44;4988361;28;19914;-84
2023/08/24 04:17:02;;;;;;;;;;;;;;;20.26;nan;100351.56;4984673;28;19933;-84
2023/08/24 04:19:31;;;;;;;;;;;;;;;20.28;nan;100348.63;4983844;28;19925;-84
2023/08/24 04:21:57;;;;;;;;;;;;;;;20.27;nan;100357.75;4982203;28;19918;-85
2023/08/24 04:24:25;;;;;;;;;;;;;;;20.30;nan;100362.66;4967825;28;20009;-84
2023/08/24 04:26:51;;;;;;;;;;;;;;;20.31;nan;100377.75;4966370;28;19914;-85
2023/08/24 04:29:17;;;;;;;;;;;;;;;20.29;nan;100383.34;4964953;28;19914;-85
2023/08/24 04:31:42;;;;;;;;;;;;;;;20.28;nan;100380.84;4972765;28;19945;-84
2023/08/24 04:34:09;;;;;;;;;;;;;;;20.26;nan;100399.03;4986176;28;19998;-85
2023/08/24 04:36:34;;;;;;;;;;;;;;;20.23;nan;100383.38;4995401;28;20291;-85
2023/08/24 04:39:00;;;;;;;;;;;;;;;20.22;nan;100384.44;4981020;28;19928;-84
2023/08/24 04:41:25;;;;;;;;;;;;;;;20.19;nan;100376.78;4980931;28;20364;-84
2023/08/24 04:43:50;;;;;;;;;;;;;;;20.18;nan;100361.75;4971417;28;19927;-86
2023/08/24 04:46:16;;;;;;;;;;;;;;;20.21;nan;100375.53;4978579;28;19992;-86
2023/08/24 04:48:41;;;;;;;;;;;;;;;20.26;nan;100366.81;4971122;28;20518;-84
2023/08/24 04:51:07;;;;;;;;;;;;;;;20.29;nan;100366.41;4959448;28;19921;-84
2023/08/24 04:53:35;;;;;;;;;;;;;;;20.28;nan;100370.94;4976839;28;19950;-84
2023/08/24 04:56:00;;;;;;;;;;;;;;;20.30;nan;100363.47;4996155;28;19914;-87
2023/08/24 04:58:26;;;;;;;;;;;;;;;20.38;nan;100354.34;4982148;28;19944;-84
2023/08/24 05:00:55;;;;;;;;;;;;;;;20.47;nan;100341.44;4982954;28;20396;-83
2023/08/24 05:03:21;;;;;;;;;;;;;;;20.56;nan;100357.06;4988304;28;19918;-84
2023/08/24 05:05:49;;;;;;;;;;;;;;;20.62;nan;100370.66;4966805;28;20355;-85
2023/08/24 05:08:14;;;;;;;;;;;;;;;20.64;nan;100363.22;4990212;28;19914;-84
2023/08/24 05:10:47;;;;;;;;;;;;;;;20.64;nan;100364.06;4960748;28;19914;-85
2023/08/24 05:13:12;;;;;;;;;;;;;;;20.64;nan;100358.69;4967386;28;19949;-85
2023/08/24 05:15:37;;;;;;;;;;;;;;;20.64;nan;100364.06;4972023;28;19930;-85
2023/08/24 05:18:03;;;;;;;;;;;;;;;20.64;nan;100364.06;4979185;28;19921;-86
2023/08/24 05:20:28;;;;;;;;;;;;;;;20.66;nan;100369.19;4977838;28;19921;-85
2023/08/24 05:22:59;;;;;;;;;;;;;;;20.73;nan;100367.25;4979385;28;19914;-85
2023/08/24 05:25:25;;;;;;;;;;;;;;;20.92;nan;100392.28;4966416;28;19914;-84
2023/08/24 05:27:50;;;;;;;;;;;;;;;21.07;nan;100399.97;4960440;28;20388;-85
2023/08/24 05:30:15;;;;;;;;;;;;;;;21.19;nan;100430.47;4960121;28;20300;-85
2023/08/24 05:32:44;;;;;;;;;;;;;;;21.21;nan;100439.09;4974883;28;19918;-86
2023/08/24 05:35:09;;;;;;;;;;;;;;;21.20;nan;100459.81;4965999;28;20001;-85
2023/08/24 05:37:35;;;;;;;;;;;;;;;21.00;nan;100481.53;4956698;28;19946;-85
2023/08/24 05:40:01;;;;;;;;;;;;;;;20.88;nan;100503.97;4969030;28;20375;-86
2023/08/24 05:42:29;;;;;;;;;;;;;;;20.62;nan;100531.88;4956463;28;20321;-86
2023/08/24 05:44:54;;;;;;;;;;;;;;;20.37;nan;100541.50;4962464;28;19957;-85
2023/08/24 05:47:23;;;;;;;;;;;;;;;20.11;nan;100563.94;4960227;29;19915;-87
2023/08/24 05:49:49;;;;;;;;;;;;;;;19.82;nan;100569.84;4959711;29;19914;-86
2023/08/24 05:52:14;;;;;;;;;;;;;;;19.76;nan;100578.75;4964278;28;19965;-87
2023/08/24 05:54:39;;;;;;;;;;;;;;;19.64;nan;100586.56;4973502;28;19946;-86
2023/08/24 05:57:04;;;;;;;;;;;;;;;19.53;nan;100569.28;4953963;28;19925;-86
2023/08/24 05:59:30;;;;;;;;;;;;;;;19.53;nan;100566.59;4954124;28;19940;-84
2023/08/24 06:01:55;;;;;;;;;;;;;;;19.63;nan;100550.06;4962589;28;19921;-86
2023/08/24 06:04:20;;;;;;;;;;;;;;;19.73;nan;100537.91;4965398;28;19973;-87
2023/08/24 06:06:46;;;;;;;;;;;;;;;19.70;nan;100527.56;4954016;28;19914;-85
2023/08/24 06:09:11;;;;;;;;;;;;;;;19.74;nan;100514.56;4953343;28;19918;-86
2023/08/24 06:11:36;;;;;;;;;;;;;;;19.83;nan;100507.94;4961375;28;19924;-85
2023/08/24 06:14:01;;;;;;;;;;;;;;;19.98;nan;100493.41;4968901;28;19925;-86
2023/08/24 06:16:27;;;;;;;;;;;;;;;20.17;nan;100475.56;4960591;28;20720;-85
2023/08/24 06:18:52;;;;;;;;;;;;;;;20.39;nan;100489.44;4961062;29;19928;-86
2023/08/24 06:21:17;;;;;;;;;;;;;;;;;;4964414;28;20013;-85
2023/08/24 06:23:44;;;;;;;;;;;;;;;20.74;nan;100487.16;4981209;28;19925;-85
2023/08/24 06:26:09;;;;;;;;;;;;;;;20.80;nan;100497.00;4997132;28;19921;-86
2023/08/24 06:28:34;;;;;;;;;;;;;;;20.84;nan;100502.78;4998823;28;20414;-86
2023/08/24 06:31:00;;;;;;;;;;;;;;;20.91;nan;100498.16;4980044;28;19909;-87
2023/08/24 06:33:31;;;;;;;;;;;;;;;21.07;nan;100478.78;4981063;28;19929;-87
2023/08/24 06:35:57;;;;;;;;;;;;;;;21.13;nan;100463.63;4963977;28;19915;-86
2023/08/24 06:38:22;;;;;;;;;;;;;;;21.08;nan;100461.59;4962483;28;20336;-87
2023/08/24 06:40:48;;;;;;;;;;;;;;;21.06;nan;100449.41;4962837;29;19923;-87
2023/08/24 06:43:13;;;;;;;;;;;;;;;20.98;nan;100440.59;4981424;28;19958;-86
2023/08/24 06:45:39;;;;;;;;;;;;;;;20.95;nan;100430.31;4983139;28;19921;-86
2023/08/24 06:48:06;;;;;;;;;;;;;;;20.96;nan;100421.19;4982214;28;19945;-88
2023/08/24 06:50:32;;;;;;;;;;;;;;;20.95;nan;100429.47;4982240;28;19918;-85
2023/08/24 06:52:57;;;;;;;;;;;;;;;;;;4980833;28;19966;-85
2023/08/24 06:55:22;;;;;;;;;;;;;;;21.00;nan;100422.38;4980038;28;19922;-85
2023/08/24 06:57:47;;;;;;;;;;;;;;;21.07;nan;100416.09;4979171;28;19937;-85
2023/08/24 07:00:14;;;;;;;;;;;;;;;21.09;nan;100419.38;4980805;28;19933;-85
2023/08/24 07:02:40;;;;;;;;;;;;;;;21.11;nan;100428.06;4995202;28;19929;-85
2023/08/24 07:05:05;;;;;;;;;;;;;;;21.06;nan;100431.41;4984175;28;19914;-84
2023/08/24 07:07:30;;;;;;;;;;;;;;;21.07;nan;100416.94;4964108;28;19914;-85
2023/08/24 07:09:56;;;;;;;;;;;;;;;21.08;nan;100417.75;4976095;28;19914;-85
2023/08/24 07:12:21;;;;;;;;;;;;;;;21.10;nan;100416.50;4964454;28;20467;-84
2023/08/24 07:14:46;;;;;;;;;;;;;;;21.20;nan;100410.59;4962947;28;20328;-84
2023/08/24 07:17:11;;;;;;;;;;;;;;;21.35;nan;100413.69;4953853;28;20385;-84
2023/08/24 07:19:37;;;;;;;;;;;;;;;21.74;nan;100422.34;4955275;28;20296;-85
2023/08/24 07:22:02;;;;;;;;;;;;;;;22.40;nan;100430.50;4973180;28;19913;-85
2023/08/24 07:24:28;;;;;;;;;;;;;;;23.02;nan;100428.19;4972517;28;19914;-84
2023/08/24 07:26:53;;;;;;;;;;;;;;;23.47;nan;100424.00;4955328;28;19915;-85
2023/08/24 07:29:19;;;;;;;;;;;;;;;23.49;nan;100428.09;4958336;28;19968;-86
2023/08/24 07:31:45;;;;;;;;;;;;;;;23.95;nan;100439.81;4976165;28;19914;-88
2023/08/24 07:34:10;;;;;;;;;;;;;;;24.62;nan;100446.34;4962763;28;19995;-84
2023/08/24 07:36:35;;;;;;;;;;;;;;;25.18;nan;100466.13;4965313;28;20380;-86
2023/08/24 07:39:00;;;;;;;;;;;;;;;25.64;nan;100463.97;4966087;28;19923;-85
2023/08/24 07:41:25;;;;;;;;;;;;;;;26.30;nan;100475.78;4973290;28;19941;-89
2023/08/24 07:43:51;;;;;;;;;;;;;;;27.07;nan;100469.84;4965050;28;19941;-85
2023/08/24 07:46:16;;;;;;;;;;;;;;;27.73;nan;100476.69;4962697;28;19914;-85
2023/08/24 07:48:41;;;;;;;;;;;;;;;28.17;nan;100477.09;4976277;28;19918;-86
2023/08/24 07:51:07;;;;;;;;;;;;;;;28.35;nan;100483.09;4968531;28;19914;-84
2023/08/24 07:53:32;;;;;;;;;;;;;;;28.40;nan;100479.56;4975701;28;19957;-84
2023/08/24 07:55:58;;;;;;;;;;;;;;;28.56;nan;100476.59;4985587;28;19914;-86
2023/08/24 07:58:23;;;;;;;;;;;;;;;28.50;nan;100479.56;4970703;28;19972;-83
2023/08/24 08:00:56;;;;;;;;;;;;;;;28.34;nan;100476.00;4971044;28;19945;-86
2023/08/24 08:03:21;;;;;;;;;;;;;;;28.23;nan;100487.97;4984695;28;20004;-85
2023/08/24 08:05:47;;;;;;;;;;;;;;;27.99;nan;100491.19;4979833;28;19918;-86
2023/08/24 08:08:15;;;;;;;;;;;;;;;27.95;nan;100490.09;4979160;28;19921;-86
2023/08/24 08:10:41;;;;;;;;;;;;;;;27.94;nan;100477.59;4985696;28;20352;-86
2023/08/24 08:13:07;;;;;;;;;;;;;;;27.91;nan;100472.69;4984845;28;19921;-85
2023/08/24 08:15:32;;;;;;;;;;;;;;;27.78;nan;100470.47;4986993;28;19918;-86
2023/08/24 08:17:57;;;;;;;;;;;;;;;27.89;nan;100447.72;4988568;28;19981;-84
2023/08/24 08:20:23;;;;;;;;;;;;;;;28.34;nan;100429.75;4986598;28;19937;-86
2023/08/24 08:22:48;;;;;;;;;;;;;;;29.14;nan;100434.59;4987208;28;19946;-85
2023/08/24 08:25:13;;;;;;;;;;;;;;;29.68;nan;100422.09;4977735;28;19914;-84
2023/08/24 08:27:39;;;;;;;;;;;;;;;29.73;nan;100413.91;4986243;28;19937;-84
2023/08/24 08:30:04;;;;;;;;;;;;;;;29.52;nan;100394.91;4986753;28;19914;-85
2023/08/24 08:32:30;;;;;;;;;;;;;;;28.97;nan;100383.97;4986716;28;19921;-85
2023/08/24 08:34:57;;;;;;;;;;;;;;;28.67;nan;100381.34;4986495;28;19945;-84
2023/08/24 08:37:22;;;;;;;;;;;;;;;28.41;nan;100372.38;4987945;28;19918;-86
2023/08/24 08:39:47;;;;;;;;;;;;;;;28.28;nan;100369.13;4985867;28;19977;-84
2023/08/24 08:42:13;;;;;;;;;;;;;;;28.33;nan;100371.03;4985258;28;19934;-85
2023/08/24 08:44:40;;;;;;;;;;;;;;;28.98;nan;100355.69;4986724;28;19921;-84
2023/08/24 08:47:08;;;;;;;;;;;;;;;30.58;nan;100358.09;4987869;28;19914;-84
2023/08/24 08:49:35;;;;;;;;;;;;;;;31.82;nan;100353.47;4986242;28;19985;-85
2023/08/24 08:52:00;;;;;;;;;;;;;;;32.32;nan;100366.59;4985327;28;19913;-87
2023/08/24 08:54:26;;;;;;;;;;;;;;;32.19;nan;100362.72;4986936;28;19921;-85
2023/08/24 08:56:52;;;;;;;;;;;;;;;32.00;nan;100359.22;4986637;28;19981;-86
2023/08/24 08:59:17;;;;;;;;;;;;;;;32.88;nan;100372.97;4985313;28;19953;-86
2023/08/24 09:01:44;;;;;;;;;;;;;;;32.89;nan;100369.91;4977701;28;19914;-84
2023/08/24 09:04:09;;;;;;;;;;;;;;;33.04;nan;100357.03;4984927;28;19977;-85
2023/08/24 09:06:35;;;;;;;;;;;;;;;33.92;nan;100357.50;4983003;28;19917;-85
2023/08/24 09:09:00;;;;;;;;;;;;;;;35.05;nan;100354.47;4983405;28;19969;-85
2023/08/24 09:11:26;;;;;;;;;;;;;;;35.92;nan;100343.50;4977026;28;19962;-85
2023/08/24 09:13:51;;;;;;;;;;;;;;;36.18;nan;100348.16;4962260;29;19928;-87
2023/08/24 09:16:17;;;;;;;;;;;;;;;36.06;nan;100349.59;4962259;28;19914;-86
2023/08/24 09:18:46;;;;;;;;;;;;;;;36.44;nan;100346.09;4963284;28;19922;-86
2023/08/24 09:21:12;;;;;;;;;;;;;;;36.52;nan;100345.28;4974873;28;19917;-87
2023/08/24 09:23:38;;;;;;;;;;;;;;;36.56;nan;100334.38;4972446;28;19918;-87
2023/08/24 09:26:04;;;;;;;;;;;;;;;36.73;nan;100334.34;4981216;28;19960;-85
2023/08/24 09:28:30;;;;;;;;;;;;;;;36.94;nan;100325.28;4980429;28;19925;-85
2023/08/24 09:30:55;;;;;;;;;;;;;;;37.29;nan;100328.63;4981194;28;19922;-85
2023/08/24 09:33:23;;;;;;;;;;;;;;;37.01;nan;100313.72;4973725;28;19922;-85
2023/08/24 09:35:52;;;;;;;;;;;;;;;36.94;nan;100292.22;4961037;28;19914;-85
2023/08/24 09:38:18;;;;;;;;;;;;;;;36.71;nan;100281.53;4960411;28;19927;-85
2023/08/24 09:40:49;;;;;;;;;;;;;;;36.44;nan;100260.72;4962914;28;19921;-84
2023/08/24 09:43:14;;;;;;;;;;;;;;;36.62;nan;100267.00;4980705;28;19913;-87
2023/08/24 09:45:52;;;;;;;;;;;;;;;36.94;nan;100262.69;4983083;28;19914;-85
2023/08/24 09:48:17;;;;;;;;;;;;;;;37.07;nan;100260.84;4996369;28;19921;-85
2023/08/24 09:50:45;;;;;;;;;;;;;;;36.77;nan;100268.34;4972836;28;20273;-85
2023/08/24 09:53:15;;;;;;;;;;;;;;;36.63;nan;100262.28;4959062;29;20001;-85
2023/08/24 09:55:41;;;;;;;;;;;;;;;36.85;nan;100253.72;4962985;29;19914;-86
2023/08/24 09:58:09;;;;;;;;;;;;;;;36.60;nan;100238.97;4965036;28;20038;-88
2023/08/24 10:00:34;;;;;;;;;;;;;;;36.48;nan;100227.84;4976502;28;19922;-85
2023/08/24 10:03:01;;;;;;;;;;;;;;;36.75;nan;100232.03;4965723;28;19914;-86
2023/08/24 10:05:27;;;;;;;;;;;;;;;36.99;nan;100247.91;4966069;28;19914;-84
2023/08/24 10:07:56;;;;;;;;;;;;;;;36.44;nan;100229.63;4967692;28;19918;-85
2023/08/24 10:10:24;;;;;;;;;;;;;;;36.12;nan;100232.72;4986463;28;19914;-86
2023/08/24 10:12:56;;;;;;;;;;;;;;;36.34;nan;100225.31;5008039;28;19921;-85
2023/08/24 10:15:23;;;;;;;;;;;;;;;36.60;nan;100229.91;5008123;28;19921;-87
2023/08/24 10:17:49;;;;;;;;;;;;;;;37.27;nan;100237.16;4988078;28;19914;-87
2023/08/24 10:20:14;;;;;;;;;;;;;;;38.11;nan;100227.81;4983851;28;19946;-87
2023/08/24 10:22:41;;;;;;;;;;;;;;;38.75;nan;100223.50;4968239;28;19910;-87
2023/08/24 10:25:06;;;;;;;;;;;;;;;39.26;nan;100223.78;4965893;28;20078;-85
2023/08/24 10:27:32;;;;;;;;;;;;;;;39.37;nan;100215.81;4965062;28;19954;-84
2023/08/24 10:30:00;;;;;;;;;;;;;;;39.70;nan;100219.06;4980369;28;19925;-87
2023/08/24 10:32:25;;;;;;;;;;;;;;;39.59;nan;100219.94;4982859;28;19938;-85
2023/08/24 10:34:50;;;;;;;;;;;;;;;39.18;nan;100213.69;4983056;28;20300;-87
2023/08/24 10:37:16;;;;;;;;;;;;;;;39.15;nan;100217.97;4982944;28;19914;-86
2023/08/24 10:39:45;;;;;;;;;;;;;;;39.17;nan;100214.88;4982412;28;19928;-86
2023/08/24 10:42:11;;;;;;;;;;;;;;;39.63;nan;100209.78;4982940;28;19914;-86
2023/08/24 10:44:37;;;;;;;;;;;;;;;40.04;nan;100213.19;4981997;28;19937;-84
2023/08/24 10:47:15;;;;;;;;;;;;;;;39.91;nan;100198.66;4981600;28;19993;-86
2023/08/24 10:49:41;;;;;;;;;;;;;;;40.05;nan;100200.97;4974151;28;20378;-85
2023/08/24 10:52:17;;;;;;;;;;;;;;;39.59;nan;100203.34;4971358;28;19925;-86
2023/08/24 10:54:44;;;;;;;;;;;;;;;39.79;nan;100199.53;4981277;28;19914;-85
2023/08/24 10:57:16;;;;;;;;;;;;;;;40.03;nan;100179.16;4997191;28;20006;-84
2023/08/24 10:59:42;;;;;;;;;;;;;;;39.97;nan;100185.31;4981173;28;19933;-85
2023/08/24 11:02:17;;;;;;;;;;;;;;;40.15;nan;100183.00;4979931;28;19914;-87
2023/08/24 11:05:02;;;;;;;;;;;;;;;40.83;nan;100181.72;4979400;28;19918;-86
2023/08/24 11:07:27;;;;;;;;;;;;;;;40.86;nan;100186.56;4982089;28;19913;-87
2023/08/24 11:09:52;;;;;;;;;;;;;;;40.88;nan;100171.16;4981653;28;19968;-85
2023/08/24 11:12:17;;;;;;;;;;;;;;;41.23;nan;100167.47;4984368;28;19914;-88
2023/08/24 11:14:51;;;;;;;;;;;;;;;41.67;nan;100171.81;4985595;28;19914;-86
2023/08/24 11:17:20;;;;;;;;;;;;;;;41.61;nan;100178.84;4983750;28;19920;-86
2023/08/24 11:19:54;;;;;;;;;;;;;;;41.65;nan;100174.19;4981679;28;20343;-86
2023/08/24 11:22:19;;;;;;;;;;;;;;;42.33;nan;100173.22;4974838;28;19929;-85
2023/08/24 11:24:45;;;;;;;;;;;;;;;42.61;nan;100177.59;4967874;28;19918;-85
2023/08/24 11:27:10;;;;;;;;;;;;;;;41.50;nan;100175.84;4980019;28;19914;-85
2023/08/24 11:29:35;;;;;;;;;;;;;;;40.40;nan;100164.97;4994731;28;19914;-84
2023/08/24 11:32:00;;;;;;;;;;;;;;;39.99;nan;100156.13;4964112;28;19919;-86
2023/08/24 11:34:26;;;;;;;;;;;;;;;39.72;nan;100147.56;4971590;28;20400;-84
2023/08/24 11:36:51;;;;;;;;;;;;;;;39.53;nan;100139.19;4961004;28;19918;-84
2023/08/24 11:39:19;;;;;;;;;;;;;;;39.06;nan;100129.63;4960964;28;19926;-84
2023/08/24 11:41:44;;;;;;;;;;;;;;;38.64;nan;100126.47;4961006;28;19914;-83
2023/08/24 11:44:09;;;;;;;;;;;;;;;38.15;nan;100126.59;4973443;28;19920;-84
2023/08/24 11:46:36;;;;;;;;;;;;;;;37.90;nan;100120.25;4966888;28;20004;-83
2023/08/24 11:49:04;;;;;;;;;;;;;;;37.52;nan;100121.34;4961880;28;19985;-83
2023/08/24 11:51:32;;;;;;;;;;;;;;;37.18;nan;100118.66;4975566;28;19918;-83
2023/08/24 11:53:58;;;;;;;;;;;;;;;36.94;nan;100116.63;4977665;28;19921;-83
2023/08/24 11:56:23;;;;;;;;;;;;;;;36.50;nan;100118.94;4975062;28;19944;-83
2023/08/24 11:58:50;;;;;;;;;;;;;;;36.11;nan;100114.69;4997155;28;19925;-83
2023/08/24 12:01:15;;;;;;;;;;;;;;;35.76;nan;100100.31;4997199;28;20323;-84
2023/08/24 12:03:41;;;;;;;;;;;;;;;35.67;nan;100103.91;4979959;28;19933;-84
2023/08/24 12:06:13;;;;;;;;;;;;;;;35.49;nan;100097.66;4972222;28;19925;-84
2023/08/24 12:08:39;;;;;;;;;;;;;;;35.24;nan;100099.34;4980794;28;19917;-83
2023/08/24 12:11:09;;;;;;;;;;;;;;;35.04;nan;100094.50;4980631;28;19914;-83
2023/08/24 12:13:35;;;;;;;;;;;;;;;34.84;nan;100085.84;4996813;28;19914;-83
2023/08/24 12:16:01;;;;;;;;;;;;;;;34.96;nan;100093.41;4973094;28;19960;-84
2023/08/24 12:18:26;;;;;;;;;;;;;;;34.93;nan;100088.56;4974374;28;19937;-84
2023/08/24 12:20:52;;;;;;;;;;;;;;;34.66;nan;100074.06;4979587;28;19914;-84
2023/08/24 12:23:17;;;;;;;;;;;;;;;34.74;nan;100080.69;4990503;28;19976;-83
2023/08/24 12:25:43;;;;;;;;;;;;;;;34.66;nan;100074.06;4976688;28;20364;-83
2023/08/24 12:28:09;;;;;;;;;;;;;;;34.62;nan;100064.06;4979862;28;19964;-84
2023/08/24 12:30:45;;;;;;;;;;;;;;;34.79;nan;100064.03;4995958;28;19997;-84
2023/08/24 12:33:20;;;;;;;;;;;;;;;34.97;nan;100058.50;4974057;28;19953;-83
2023/08/24 12:35:45;;;;;;;;;;;;;;;34.77;nan;100052.56;4978438;28;20421;-84
2023/08/24 12:38:10;;;;;;;;;;;;;;;34.77;nan;100049.81;4978862;28;19925;-83
2023/08/24 12:40:36;;;;;;;;;;;;;;;34.73;nan;100040.63;4980160;28;19918;-83
2023/08/24 12:43:01;;;;;;;;;;;;;;;34.64;nan;100037.09;4976569;28;19969;-83
2023/08/24 12:45:26;;;;;;;;;;;;;;;34.66;nan;100034.81;4975708;28;20380;-83
2023/08/24 12:47:51;;;;;;;;;;;;;;;34.82;nan;100033.16;4995848;28;20366;-84
2023/08/24 12:50:16;;;;;;;;;;;;;;;35.00;nan;100030.38;4996398;28;20005;-84
2023/08/24 12:52:41;;;;;;;;;;;;;;;35.16;nan;100031.50;4980685;28;19945;-84
2023/08/24 12:55:07;;;;;;;;;;;;;;;35.07;nan;100039.72;4985138;28;19968;-84